Time;durP1;ratioP1;P1;durP2;ratioP2;P2;SDS_P1;SDS_P2;PMS_P1;PMS_P2;Temp;Humidity;BMP_temperature;BMP_pressure;BME280_temperature;BME280_humidity;BME280_pressure;Samples;Min_cycle;Max_cycle;Signal;HPM_P1;HPM_P2
2023/04/29 00:01:25;;;;;;;22.83;3.55;;;;;;;10.26;100.00;95955.75;5094498;28;20074;-76
2023/04/29 00:03:52;;;;;;;13.23;2.70;;;;;;;10.26;100.00;95953.81;5099068;28;20044;-76
2023/04/29 00:06:20;;;;;;;11.63;2.28;;;;;;;10.17;100.00;95948.34;5098804;28;20047;-76
2023/04/29 00:08:46;;;;;;;9.27;2.00;;;;;;;10.18;100.00;95941.81;5092386;28;20044;-76
2023/04/29 00:11:13;;;;;;;15.45;2.90;;;;;;;10.15;100.00;95950.63;5099029;27;20124;-76
2023/04/29 00:13:40;;;;;;;12.85;2.15;;;;;;;10.10;100.00;95950.78;5096974;28;20047;-78
2023/04/29 00:16:09;;;;;;;8.48;1.98;;;;;;;10.02;100.00;95950.81;5096585;28;20544;-76
2023/04/29 00:18:36;;;;;;;11.55;2.30;;;;;;;9.95;100.00;95948.59;5098392;28;20040;-76
2023/04/29 00:21:04;;;;;;;9.38;1.73;;;;;;;9.98;100.00;95944.44;5086588;28;20132;-76
2023/04/29 00:23:32;;;;;;;10.20;2.20;;;;;;;10.01;100.00;95947.28;5104783;28;20046;-77
2023/04/29 00:25:59;;;;;;;9.02;1.80;;;;;;;10.04;100.00;95943.94;5096013;28;20093;-77
2023/04/29 00:28:25;;;;;;;9.90;1.95;;;;;;;9.91;100.00;95944.91;5091692;27;20054;-76
2023/04/29 00:30:53;;;;;;;7.60;1.58;;;;;;;10.01;100.00;95950.00;5093493;28;20048;-77
2023/04/29 00:33:28;;;;;;;9.50;1.40;;;;;;;9.90;100.00;95948.75;5092559;28;20047;-77
2023/04/29 00:35:54;;;;;;;11.50;2.10;;;;;;;10.02;100.00;95946.16;5086519;28;20475;-75
2023/04/29 00:38:21;;;;;;;10.50;2.13;;;;;;;10.04;100.00;95949.38;5091915;28;20055;-76
2023/04/29 00:40:49;;;;;;;9.52;1.88;;;;;;;9.97;100.00;95949.09;5092234;28;20048;-76
2023/04/29 00:43:15;;;;;;;16.33;2.80;;;;;;;9.95;100.00;95945.88;5089972;28;20403;-76
2023/04/29 00:45:42;;;;;;;5.55;1.35;;;;;;;9.94;100.00;95949.72;5092227;28;20135;-75
2023/04/29 00:48:09;;;;;;;10.95;2.05;;;;;;;9.81;100.00;95942.53;5090458;28;20048;-75
2023/04/29 00:50:36;;;;;;;12.00;2.08;;;;;;;9.88;100.00;95948.28;5091575;28;20047;-76
2023/04/29 00:53:03;;;;;;;16.27;2.42;;;;;;;9.92;100.00;95941.09;5091319;28;20411;-76
2023/04/29 00:55:30;;;;;;;12.80;2.10;;;;;;;9.81;100.00;95947.97;5090735;28;20044;-76
2023/04/29 00:57:58;;;;;;;13.00;2.30;;;;;;;9.82;100.00;95946.88;5092348;28;20052;-75
2023/04/29 01:00:25;;;;;;;9.80;2.00;;;;;;;9.82;100.00;95941.44;5091771;28;20047;-75
2023/04/29 01:02:54;;;;;;;9.55;1.98;;;;;;;9.75;100.00;95941.09;5092327;28;20044;-76
2023/04/29 01:05:21;;;;;;;25.40;4.63;;;;;;;9.76;100.00;95934.53;5088672;28;20050;-75
2023/04/29 01:07:57;;;;;;;11.65;2.20;;;;;;;9.67;100.00;95940.00;5085071;28;20071;-75
2023/04/29 01:10:28;;;;;;;14.02;2.60;;;;;;;9.71;100.00;95940.16;5090398;28;20040;-75
2023/04/29 01:13:05;;;;;;;15.65;2.35;;;;;;;9.65;100.00;95942.22;5090616;28;20048;-75
2023/04/29 01:15:39;;;;;;;12.25;2.67;;;;;;;9.77;100.00;95938.88;5089654;28;20573;-76
2023/04/29 01:18:11;;;;;;;12.13;2.45;;;;;;;9.78;100.00;95938.56;5088592;27;20043;-75
2023/04/29 01:20:38;;;;;;;10.68;2.22;;;;;;;9.70;100.00;95939.34;5091047;28;20101;-76
2023/04/29 01:23:05;;;;;;;9.93;2.05;;;;;;;9.59;100.00;95933.44;5090720;28;20722;-75
2023/04/29 01:25:33;;;;;;;13.82;2.50;;;;;;;9.58;100.00;95931.06;5090657;28;20502;-76
2023/04/29 01:28:13;;;;;;;9.32;2.00;;;;;;;9.54;100.00;95930.91;5091436;28;20055;-75
2023/04/29 01:30:50;;;;;;;11.95;2.13;;;;;;;9.53;100.00;95929.31;5089722;28;20036;-75
2023/04/29 01:33:24;;;;;;;8.02;1.75;;;;;;;9.56;100.00;95923.22;5090491;28;20048;-75
2023/04/29 01:36:06;;;;;;;15.82;3.03;;;;;;;9.54;100.00;95928.19;5090987;28;20044;-75
2023/04/29 01:38:40;;;;;;;8.15;1.88;;;;;;;9.54;100.00;95917.31;5089422;28;20667;-75
2023/04/29 01:41:15;;;;;;;12.38;2.42;;;;;;;9.54;100.00;95928.19;5092239;28;20044;-75
2023/04/29 01:43:43;;;;;;;9.68;1.80;;;;;;;9.54;100.00;95925.47;5096592;28;20078;-76
2023/04/29 01:46:11;;;;;;;10.02;2.28;;;;;;;9.55;100.00;95927.09;5097320;28;20111;-74
2023/04/29 01:48:37;;;;;;;11.25;2.33;;;;;;;9.56;100.00;95927.88;5097445;28;20055;-75
2023/04/29 01:51:05;;;;;;;9.57;2.13;;;;;;;9.58;100.00;95926.41;5094588;27;20555;-74
2023/04/29 01:53:31;;;;;;;12.63;2.40;;;;;;;9.57;100.00;95930.25;5095269;28;20079;-75
2023/04/29 01:55:58;;;;;;;9.98;2.10;;;;;;;9.53;100.00;95932.03;5094865;28;20044;-76
2023/04/29 01:58:26;;;;;;;10.85;2.15;;;;;;;9.52;100.00;95933.16;5094462;28;20047;-75
2023/04/29 02:00:53;;;;;;;13.63;2.35;;;;;;;9.53;100.00;95928.50;5088699;28;20040;-75
2023/04/29 02:03:20;;;;;;;10.40;2.22;;;;;;;9.49;100.00;95928.34;5090524;28;20526;-76
2023/04/29 02:05:46;;;;;;;10.55;2.40;;;;;;;9.51;100.00;95928.84;5091875;28;20048;-76
2023/04/29 02:08:13;;;;;;;13.75;2.65;;;;;;;9.50;100.00;95929.13;5089978;28;20040;-75
2023/04/29 02:10:39;;;;;;;10.32;2.40;;;;;;;9.50;100.00;95929.97;5090301;28;20036;-75
2023/04/29 02:13:06;;;;;;;10.32;2.35;;;;;;;9.59;100.00;95930.72;5088654;28;20048;-74
2023/04/29 02:15:34;;;;;;;12.40;2.60;;;;;;;9.54;100.00;95936.34;5088221;27;20503;-74
2023/04/29 02:18:00;;;;;;;11.98;2.42;;;;;;;9.52;100.00;95938.59;5090623;28;20036;-75
2023/04/29 02:20:27;;;;;;;12.60;2.70;;;;;;;9.52;100.00;95932.34;5088386;28;20055;-74
2023/04/29 02:22:53;;;;;;;12.65;2.38;;;;;;;9.54;100.00;95930.91;5090185;28;20047;-73
2023/04/29 02:25:20;;;;;;;12.23;2.35;;;;;;;9.56;100.00;95928.66;5089363;28;20050;-74
2023/04/29 02:27:46;;;;;;;12.45;2.45;;;;;;;9.57;100.00;95930.25;5080602;28;20048;-74
2023/04/29 02:30:13;;;;;;;12.82;2.28;;;;;;;9.60;100.00;95934.25;5089517;28;20041;-74
2023/04/29 02:32:40;;;;;;;7.47;2.53;;;;;;;9.55;100.00;95924.38;5089714;28;20044;-75
2023/04/29 02:35:08;;;;;;;15.95;2.78;;;;;;;9.55;100.00;95932.50;5089379;28;20045;-75
2023/04/29 02:37:34;;;;;;;10.10;2.42;;;;;;;9.56;100.00;95925.94;5089536;27;20064;-74
2023/04/29 02:40:03;;;;;;;13.70;2.85;;;;;;;9.63;100.00;95937.13;5089152;28;20044;-75
2023/04/29 02:42:29;;;;;;;22.73;4.40;;;;;;;9.71;100.00;95929.28;5088976;28;20047;-74
2023/04/29 02:44:56;;;;;;;9.05;2.20;;;;;;;9.65;100.00;95937.59;5089896;28;20052;-74
2023/04/29 02:47:23;;;;;;;10.95;2.70;;;;;;;9.65;100.00;95928.63;5089442;28;20479;-74
2023/04/29 02:49:51;;;;;;;12.75;2.75;;;;;;;9.69;100.00;95937.75;5089342;28;20040;-74
2023/04/29 02:52:18;;;;;;;6.68;2.75;;;;;;;9.70;100.00;95931.19;5091459;28;20051;-74
2023/04/29 02:54:44;;;;;;;12.48;2.80;;;;;;;9.76;100.00;95931.81;5092391;28;20430;-75
2023/04/29 02:57:11;;;;;;;15.85;2.72;;;;;;;9.71;100.00;95934.72;5089398;28;20040;-76
2023/04/29 02:59:37;;;;;;;8.27;2.78;;;;;;;9.73;100.00;95932.47;5089951;28;20067;-75
2023/04/29 03:02:04;;;;;;;4.85;2.58;;;;;;;9.70;100.00;95933.13;5087659;28;20044;-75
2023/04/29 03:04:30;;;;;;;15.80;3.30;;;;;;;9.68;100.00;95934.25;5089374;28;20486;-74
2023/04/29 03:06:58;;;;;;;8.75;2.33;;;;;;;9.75;100.00;95938.38;5088247;27;20055;-74
2023/04/29 03:09:25;;;;;;;15.05;3.10;;;;;;;9.80;100.00;95938.22;5087798;28;20051;-74
2023/04/29 03:11:52;;;;;;;13.57;3.05;;;;;;;9.80;100.00;95940.94;5089515;28;20070;-74
2023/04/29 03:14:18;;;;;;;10.18;2.67;;;;;;;9.77;100.00;95938.88;5088075;28;20498;-75
2023/04/29 03:16:45;;;;;;;6.10;2.65;;;;;;;9.75;100.00;95936.47;5089084;28;20067;-73
2023/04/29 03:19:12;;;;;;;16.70;3.50;;;;;;;9.70;100.00;95938.56;5088670;28;20508;-74
2023/04/29 03:21:38;;;;;;;10.77;2.75;;;;;;;9.77;100.00;95938.88;5088200;28;20047;-74
2023/04/29 03:24:06;;;;;;;18.20;3.35;;;;;;;9.88;100.00;95938.22;5088672;28;20044;-74
2023/04/29 03:26:33;;;;;;;13.77;3.05;;;;;;;9.98;100.00;95936.28;5087941;27;20047;-74
2023/04/29 03:28:59;;;;;;;12.48;2.97;;;;;;;10.01;100.00;95932.88;5089824;27;20071;-74
2023/04/29 03:31:26;;;;;;;14.63;3.70;;;;;;;9.96;100.00;95931.13;5092431;28;20047;-74
2023/04/29 03:33:53;;;;;;;14.27;3.28;;;;;;;10.00;100.00;95932.09;5090960;27;20510;-74
2023/04/29 03:36:19;;;;;;;7.60;2.97;;;;;;;9.91;100.00;95937.53;5092313;28;20036;-75
2023/04/29 03:38:46;;;;;;;10.18;3.70;;;;;;;9.90;100.00;95937.88;5093264;28;20054;-73
2023/04/29 03:41:14;;;;;;;13.52;3.70;;;;;;;9.87;100.00;95938.53;5092627;28;20044;-74
2023/04/29 03:43:42;;;;;;;12.02;3.55;;;;;;;9.91;100.00;95936.75;5092144;28;20044;-75
2023/04/29 03:46:09;;;;;;;13.25;3.90;;;;;;;9.94;100.00;95934.19;5092301;28;20058;-74
2023/04/29 03:48:35;;;;;;;12.35;3.72;;;;;;;10.00;100.00;95937.53;5092677;28;20517;-74
2023/04/29 03:51:02;;;;;;;11.57;3.67;;;;;;;10.02;100.00;95931.75;5091329;28;20123;-74
2023/04/29 03:53:29;;;;;;;18.63;4.53;;;;;;;10.00;100.00;95931.31;5092682;28;20051;-76
2023/04/29 03:55:55;;;;;;;13.38;4.07;;;;;;;10.06;100.00;95930.78;5091957;28;20047;-75
2023/04/29 03:58:23;;;;;;;15.48;3.92;;;;;;;10.14;100.00;95935.41;5092439;28;20052;-74
2023/04/29 04:00:50;;;;;;;14.30;4.00;;;;;;;10.08;100.00;95939.44;5091910;28;20457;-74
2023/04/29 04:03:16;;;;;;;12.35;3.38;;;;;;;10.11;100.00;95938.78;5092403;28;20044;-74
2023/04/29 04:05:43;;;;;;;6.35;3.47;;;;;;;10.00;100.00;95937.53;5092634;28;20040;-74
2023/04/29 04:08:10;;;;;;;12.32;3.70;;;;;;;9.83;100.00;95948.47;5091099;28;20044;-75
2023/04/29 04:10:36;;;;;;;11.73;4.18;;;;;;;9.81;100.00;95939.81;5092452;28;20036;-73
2023/04/29 04:13:03;;;;;;;12.10;3.85;;;;;;;9.78;100.00;95940.47;5091820;28;20048;-75
2023/04/29 04:15:31;;;;;;;17.05;4.85;;;;;;;9.82;100.00;95946.88;5090088;27;20129;-73
2023/04/29 04:17:57;;;;;;;9.20;3.78;;;;;;;9.87;100.00;95947.50;5092120;28;20063;-74
2023/04/29 04:20:23;;;;;;;10.55;4.10;;;;;;;9.97;100.00;95948.25;5089949;28;20040;-74
2023/04/29 04:22:50;;;;;;;9.45;3.85;;;;;;;10.01;100.00;95952.72;5092337;28;20052;-74
2023/04/29 04:25:17;;;;;;;7.43;3.63;;;;;;;10.06;100.00;95958.00;5092047;28;20408;-74
2023/04/29 04:27:43;;;;;;;9.18;3.80;;;;;;;10.14;100.00;95954.47;5092432;28;20690;-74
2023/04/29 04:30:10;;;;;;;14.40;4.72;;;;;;;10.20;100.00;95957.81;5091249;28;20518;-75
2023/04/29 04:32:38;;;;;;;10.48;4.47;;;;;;;10.18;100.00;95954.63;5091755;28;20501;-75
2023/04/29 04:35:07;;;;;;;6.30;3.72;;;;;;;10.23;100.00;95961.78;5091304;28;20495;-75
2023/04/29 04:37:33;;;;;;;11.23;4.78;;;;;;;10.20;100.00;95969.50;5092842;28;20098;-74
2023/04/29 04:40:00;;;;;;;10.63;4.40;;;;;;;10.30;100.00;95968.38;5091893;28;20044;-74
2023/04/29 04:42:26;;;;;;;18.40;5.55;;;;;;;10.22;100.00;95965.63;5088969;28;20053;-75
2023/04/29 04:44:53;;;;;;;11.95;4.75;;;;;;;10.18;100.00;95970.94;5091943;28;20048;-74
2023/04/29 04:47:19;;;;;;;10.57;4.80;;;;;;;10.19;100.00;95967.09;5093218;28;20051;-74
2023/04/29 04:49:48;;;;;;;7.38;4.50;;;;;;;10.12;100.00;95964.84;5092967;28;20058;-74
2023/04/29 04:52:15;;;;;;;7.10;4.60;;;;;;;10.22;100.00;95976.53;5091747;27;20074;-74
2023/04/29 04:54:45;;;;;;;13.85;5.45;;;;;;;10.15;100.00;95977.81;5090488;27;20494;-74
2023/04/29 04:57:11;;;;;;;11.43;5.28;;;;;;;10.19;100.00;95976.06;5092445;28;20052;-74
2023/04/29 04:59:38;;;;;;;17.05;6.07;;;;;;;10.35;100.00;95981.81;5092251;28;20066;-74
2023/04/29 05:02:04;;;;;;;16.95;5.95;;;;;;;10.53;100.00;95982.53;5091259;28;20048;-74
2023/04/29 05:04:31;;;;;;;13.20;5.50;;;;;;;10.58;100.00;95985.06;5092010;28;20040;-74
2023/04/29 05:06:59;;;;;;;10.88;5.35;;;;;;;10.71;100.00;95984.06;5091193;28;20621;-75
2023/04/29 05:09:25;;;;;;;14.30;6.47;;;;;;;10.74;100.00;95981.81;5091395;28;20075;-76
2023/04/29 05:11:52;;;;;;;12.40;5.63;;;;;;;10.83;100.00;95986.09;5091826;28;20044;-74
2023/04/29 05:14:19;;;;;;;13.15;6.15;;;;;;;10.86;100.00;95984.66;5091013;28;20109;-74
2023/04/29 05:16:45;;;;;;;15.65;6.22;;;;;;;10.90;100.00;95991.00;5091656;28;20574;-74
2023/04/29 05:19:12;;;;;;;13.65;6.78;;;;;;;11.06;100.00;95994.75;5090101;27;20040;-74
2023/04/29 05:21:39;;;;;;;12.43;5.90;;;;;;;11.15;100.00;95994.72;5091033;28;20055;-74
2023/04/29 05:24:07;;;;;;;11.23;5.57;;;;;;;11.28;100.00;95995.63;5090791;28;20051;-74
2023/04/29 05:26:33;;;;;;;11.45;5.97;;;;;;;11.29;100.00;96002.66;5091722;28;20044;-74
2023/04/29 05:29:00;;;;;;;12.63;5.63;;;;;;;11.26;100.00;95997.84;5092773;28;20040;-75
2023/04/29 05:31:27;;;;;;;13.00;5.68;;;;;;;11.27;100.00;96007.63;5090732;28;20066;-76
2023/04/29 05:33:53;;;;;;;9.90;5.10;;;;;;;11.34;100.00;95991.56;5092112;28;20047;-75
2023/04/29 05:36:20;;;;;;;14.85;5.47;;;;;;;11.29;100.00;95998.00;5091542;28;20040;-76
2023/04/29 05:38:46;;;;;;;11.65;5.65;;;;;;;11.32;100.00;95999.25;5083685;28;20105;-76
2023/04/29 05:41:14;;;;;;;16.30;6.38;;;;;;;11.27;100.00;96002.97;5089436;27;20055;-75
2023/04/29 05:43:41;;;;;;;8.30;4.78;;;;;;;11.36;100.00;96009.16;5091659;28;20044;-76
2023/04/29 05:46:07;;;;;;;11.00;4.88;;;;;;;11.26;100.00;96015.00;5090887;28;20040;-76
2023/04/29 05:48:34;;;;;;;11.32;5.15;;;;;;;11.31;100.00;96022.19;5091325;28;20036;-76
2023/04/29 05:51:00;;;;;;;5.80;4.43;;;;;;;11.43;100.00;96019.53;5090638;28;20052;-74
2023/04/29 05:53:26;;;;;;;17.17;6.35;;;;;;;11.34;100.00;96021.56;5085778;28;20054;-78
2023/04/29 05:55:53;;;;;;;18.45;6.28;;;;;;;11.42;100.00;96012.50;5088621;28;20051;-73
2023/04/29 05:58:21;;;;;;;14.93;6.07;;;;;;;11.55;100.00;96011.47;5086707;28;20052;-73
2023/04/29 06:00:48;;;;;;;17.27;6.70;;;;;;;11.53;100.00;96021.09;5088237;27;20048;-74
2023/04/29 06:03:15;;;;;;;15.15;6.32;;;;;;;11.49;100.00;96021.75;5087427;28;20051;-73
2023/04/29 06:05:42;;;;;;;16.70;6.47;;;;;;;11.50;100.00;96025.28;5083773;28;20052;-74
2023/04/29 06:08:09;;;;;;;13.75;6.60;;;;;;;11.54;100.00;96028.94;5087397;28;20047;-74
2023/04/29 06:10:36;;;;;;;17.98;6.65;;;;;;;11.63;100.00;96029.66;5087339;28;20050;-74
2023/04/29 06:13:02;;;;;;;12.98;6.28;;;;;;;11.72;100.00;96027.69;5087564;28;20130;-75
2023/04/29 06:15:30;;;;;;;17.10;7.38;;;;;;;11.84;100.00;96029.69;5088278;28;20044;-72
2023/04/29 06:17:57;;;;;;;16.27;7.03;;;;;;;11.83;100.00;96038.22;5087252;27;20044;-73
2023/04/29 06:20:23;;;;;;;17.20;7.55;;;;;;;11.87;100.00;96039.16;5087965;28;20048;-73
2023/04/29 06:22:50;;;;;;;18.15;8.18;;;;;;;11.88;100.00;96046.19;5079368;28;20059;-73
2023/04/29 06:25:16;;;;;;;15.93;7.75;;;;;;;11.92;100.00;96047.13;5087123;28;20130;-73
2023/04/29 06:27:43;;;;;;;20.45;7.78;;;;;;;11.99;100.00;96045.47;5085735;28;20051;-73
2023/04/29 06:30:10;;;;;;;19.75;7.95;;;;;;;12.05;100.00;96048.78;5086782;28;20604;-74
2023/04/29 06:32:38;;;;;;;24.85;8.20;;;;;;;12.14;100.00;96048.72;5086193;28;20040;-74
2023/04/29 06:35:05;;;;;;;15.23;7.55;;;;;;;12.10;100.00;96056.75;5087347;28;20050;-73
2023/04/29 06:37:32;;;;;;;21.10;8.23;;;;;;;12.12;100.00;96056.44;5086209;28;20052;-73
2023/04/29 06:39:58;;;;;;;18.90;8.38;;;;;;;12.21;100.00;96057.94;5085521;27;20040;-75
2023/04/29 06:42:24;;;;;;;18.70;8.45;;;;;;;12.27;100.00;96059.34;5086959;28;20043;-74
2023/04/29 06:44:51;;;;;;;16.98;8.52;;;;;;;12.23;100.00;96058.41;5079401;28;20044;-74
2023/04/29 06:47:18;;;;;;;20.52;9.13;;;;;;;12.41;100.00;96069.16;5086553;28;20056;-74
2023/04/29 06:49:49;;;;;;;18.73;8.43;;;;;;;12.43;100.00;96053.25;5086476;28;20056;-74
2023/04/29 06:52:15;;;;;;;20.30;9.50;;;;;;;12.59;100.00;96058.88;5083926;28;20048;-74
2023/04/29 06:54:42;;;;;;;19.90;9.20;;;;;;;12.69;100.00;96059.25;5086031;28;20062;-74
2023/04/29 06:57:08;;;;;;;18.25;8.75;;;;;;;12.71;100.00;96058.91;5085780;27;20040;-74
2023/04/29 06:59:35;;;;;;;27.45;9.18;;;;;;;12.65;100.00;96062.97;5086853;28;20048;-74
2023/04/29 07:02:01;;;;;;;20.33;8.68;;;;;;;12.50;100.00;96067.94;5087526;28;20123;-74
2023/04/29 07:04:28;;;;;;;18.65;9.05;;;;;;;12.42;100.00;96065.28;5088472;28;20047;-73
2023/04/29 07:06:57;;;;;;;27.15;10.40;;;;;;;12.48;100.00;96072.16;5090840;28;20044;-73
2023/04/29 07:09:25;;;;;;;22.48;10.40;;;;;;;12.44;100.00;96071.22;5091182;28;20044;-73
2023/04/29 07:11:51;;;;;;;18.52;9.68;;;;;;;12.33;100.00;96078.25;5091537;28;20154;-74
2023/04/29 07:14:18;;;;;;;26.30;10.77;;;;;;;12.24;100.00;96076.38;5091649;28;20044;-73
2023/04/29 07:16:44;;;;;;;20.20;10.23;;;;;;;12.35;100.00;96084.16;5091449;28;20055;-74
2023/04/29 07:19:11;;;;;;;21.40;11.70;;;;;;;12.36;100.00;96083.03;5089818;28;20068;-73
2023/04/29 07:21:37;;;;;;;24.50;11.80;;;;;;;12.60;100.00;96088.56;5090766;28;20059;-74
2023/04/29 07:24:06;;;;;;;26.25;12.52;;;;;;;12.62;100.00;96074.56;5089880;28;20044;-74
2023/04/29 07:26:32;;;;;;;24.05;12.40;;;;;;;12.50;100.00;96089.78;5090560;28;20763;-73
2023/04/29 07:28:59;;;;;;;23.30;12.52;;;;;;;12.45;100.00;96086.47;5090032;28;20071;-74
2023/04/29 07:31:25;;;;;;;20.70;11.52;;;;;;;12.48;100.00;96088.56;5088666;27;20117;-74
2023/04/29 07:33:52;;;;;;;20.17;11.38;;;;;;;12.45;100.00;96091.94;5092112;28;20063;-74
2023/04/29 07:36:18;;;;;;;22.58;11.60;;;;;;;12.74;100.00;96094.53;5091635;28;20059;-73
2023/04/29 07:38:45;;;;;;;15.00;11.30;;;;;;;12.91;100.00;96092.75;5090543;28;20048;-74
2023/04/29 07:41:13;;;;;;;22.77;11.90;;;;;;;12.93;100.00;96098.66;5089812;28;20803;-74
2023/04/29 07:43:39;;;;;;;21.02;12.35;;;;;;;13.01;100.00;96098.56;5088237;27;20134;-74
2023/04/29 07:46:06;;;;;;;25.60;12.00;;;;;;;13.01;100.00;96098.56;5089394;28;20531;-73
2023/04/29 07:48:37;;;;;;;18.05;11.00;;;;;;;14.04;100.00;96100.22;5089253;28;20051;-73
2023/04/29 07:51:04;;;;;;;21.77;10.27;;;;;;;14.49;98.67;96091.00;5088979;28;20064;-74
2023/04/29 07:53:30;;;;;;;18.33;9.70;;;;;;;14.39;97.54;96096.94;5088429;28;20484;-73
2023/04/29 07:55:57;;;;;;;16.95;8.98;;;;;;;15.40;95.17;96099.25;5086983;27;20046;-73
2023/04/29 07:58:25;;;;;;;16.30;7.82;;;;;;;15.83;86.31;96097.53;5088798;28;20040;-74
2023/04/29 08:00:51;;;;;;;22.38;8.90;;;;;;;16.12;87.24;96107.16;5088446;28;20051;-73
2023/04/29 08:03:18;;;;;;;19.92;8.77;;;;;;;15.10;88.99;96101.63;5087868;28;20055;-74
2023/04/29 08:05:45;;;;;;;12.55;7.88;;;;;;;15.08;92.44;96110.19;5083113;28;20048;-73
2023/04/29 08:08:11;;;;;;;10.80;7.10;;;;;;;16.77;83.33;96098.31;5088772;28;20518;-74
2023/04/29 08:10:42;;;;;;;12.25;7.25;;;;;;;16.48;81.31;96096.94;5090202;28;20656;-74
2023/04/29 08:13:08;;;;;;;10.52;6.45;;;;;;;15.71;85.03;96109.38;5088330;27;20048;-74
2023/04/29 08:15:36;;;;;;;9.35;5.72;;;;;;;16.82;80.95;96104.31;5089977;28;20055;-74
2023/04/29 08:18:02;;;;;;;12.77;6.05;;;;;;;16.78;79.21;96106.19;5088652;28;20048;-74
2023/04/29 08:20:29;;;;;;;19.63;6.10;;;;;;;16.37;77.53;96114.00;5089156;28;20051;-74
2023/04/29 08:22:58;;;;;;;19.83;6.25;;;;;;;16.39;79.32;96116.38;5090496;28;20443;-73
2023/04/29 08:25:25;;;;;;;13.35;5.60;;;;;;;17.22;77.31;96108.53;5089674;28;20047;-74
2023/04/29 08:27:52;;;;;;;21.10;7.60;;;;;;;16.55;77.52;96105.31;5089561;28;20586;-74
2023/04/29 08:30:19;;;;;;;14.60;6.55;;;;;;;16.00;82.07;96107.31;5089279;28;20520;-73
2023/04/29 08:32:47;;;;;;;15.30;5.93;;;;;;;16.39;82.29;96100.69;5087836;28;20055;-73
2023/04/29 08:35:14;;;;;;;13.95;5.55;;;;;;;16.89;78.76;96096.19;5089047;28;20044;-73
2023/04/29 08:37:40;;;;;;;20.52;6.85;;;;;;;18.05;78.85;96103.19;5089542;28;20055;-73
2023/04/29 08:40:16;;;;;;;11.75;5.00;;;;;;;17.39;72.30;96099.81;5089476;28;20048;-75
2023/04/29 08:42:45;;;;;;;12.60;4.72;;;;;;;16.60;75.68;96097.59;5091510;28;20059;-74
2023/04/29 08:45:16;;;;;;;9.57;4.47;;;;;;;16.99;77.58;96100.28;5085087;28;20273;-75
2023/04/29 08:47:43;;;;;;;14.43;4.90;;;;;;;17.39;76.70;96097.06;5092544;28;20056;-75
2023/04/29 08:50:12;;;;;;;15.90;4.60;;;;;;;17.96;78.00;96091.66;5092341;28;20043;-75
2023/04/29 08:52:41;;;;;;;13.43;4.88;;;;;;;18.40;72.31;96091.84;5093455;28;20048;-74
2023/04/29 08:55:08;;;;;;;11.70;4.28;;;;;;;18.87;69.30;96100.69;5091776;28;20410;-73
2023/04/29 08:57:38;;;;;;;7.55;3.60;;;;;;;18.38;68.47;96101.69;5092004;28;20051;-73
2023/04/29 09:00:07;;;;;;;9.02;4.28;;;;;;;17.77;69.74;96095.31;5092205;28;20110;-74
2023/04/29 09:02:38;;;;;;;10.40;4.75;;;;;;;16.79;71.96;96090.47;5091160;27;20123;-73
2023/04/29 09:05:10;;;;;;;10.63;4.43;;;;;;;16.03;76.48;96092.88;5092142;28;20051;-73
2023/04/29 09:07:41;;;;;;;10.20;4.47;;;;;;;16.16;78.07;96102.56;5093234;28;20131;-73
2023/04/29 09:10:09;;;;;;;8.32;4.03;;;;;;;16.40;75.92;96098.75;5092415;28;20046;-74
2023/04/29 09:12:36;;;;;;;12.63;5.25;;;;;;;15.74;76.99;96094.16;5090064;27;20062;-72
2023/04/29 09:15:03;;;;;;;7.93;4.10;;;;;;;15.63;77.98;96091.97;5092098;28;20044;-74
2023/04/29 09:17:43;;;;;;;8.15;3.45;;;;;;;15.19;78.40;96093.19;5092754;28;20044;-73
2023/04/29 09:20:27;;;;;;;10.52;4.45;;;;;;;15.02;80.95;96094.34;5092818;28;20055;-74
2023/04/29 09:22:58;;;;;;;6.20;3.10;;;;;;;14.87;79.37;96091.22;5092285;28;20580;-73
2023/04/29 09:25:26;;;;;;;9.20;4.00;;;;;;;15.19;85.11;96088.53;5090200;27;20051;-73
2023/04/29 09:27:53;;;;;;;5.65;3.90;;;;;;;15.90;78.85;96083.94;5092368;28;20498;-74
2023/04/29 09:30:20;;;;;;;5.47;3.25;;;;;;;16.40;77.67;96079.50;5083327;28;20518;-74
2023/04/29 09:32:48;;;;;;;3.95;3.22;;;;;;;17.03;74.80;96078.38;5093916;28;20058;-74
2023/04/29 09:35:26;;;;;;;4.15;3.22;;;;;;;17.39;75.60;96086.06;5091386;28;20387;-74
2023/04/29 09:37:56;;;;;;;4.70;3.28;;;;;;;16.48;72.38;96083.19;5092758;28;20498;-74
2023/04/29 09:40:30;;;;;;;7.70;4.15;;;;;;;15.69;74.68;96095.25;5091074;28;20040;-74
2023/04/29 09:42:58;;;;;;;6.35;3.50;;;;;;;15.67;76.18;96086.56;5092315;28;20040;-74
2023/04/29 09:45:35;;;;;;;7.85;3.60;;;;;;;16.46;73.09;96088.25;5092028;28;20449;-73
2023/04/29 09:48:03;;;;;;;5.70;3.33;;;;;;;17.18;75.99;96085.69;5091411;28;20082;-74
2023/04/29 09:50:33;;;;;;;5.05;2.70;;;;;;;17.41;68.29;96083.72;5089206;28;20040;-73
2023/04/29 09:53:00;;;;;;;6.28;3.33;;;;;;;17.80;72.32;96089.09;5090885;28;20068;-74
2023/04/29 09:55:31;;;;;;;10.32;3.67;;;;;;;17.46;66.61;96088.91;5084976;28;20044;-73
2023/04/29 09:58:00;;;;;;;8.70;3.13;;;;;;;17.38;71.07;96073.47;5094480;28;20062;-74
2023/04/29 10:00:47;;;;;;;6.70;2.92;;;;;;;17.07;67.80;96084.69;5080388;28;20396;-74
2023/04/29 10:03:21;;;;;;;9.60;3.42;;;;;;;16.60;68.79;96083.84;5090529;28;20046;-74
2023/04/29 10:05:48;;;;;;;4.30;2.70;;;;;;;16.05;72.31;96093.28;5088367;27;20532;-75
2023/04/29 10:08:15;;;;;;;11.02;3.80;;;;;;;15.74;72.43;96085.94;5084193;28;20044;-73
2023/04/29 10:10:46;;;;;;;6.97;3.80;;;;;;;15.71;74.06;96087.44;5093941;28;20052;-74
2023/04/29 10:13:12;;;;;;;9.45;4.10;;;;;;;15.27;71.63;96082.06;5092385;27;20540;-73
2023/04/29 10:15:49;;;;;;;5.70;2.88;;;;;;;15.22;73.45;96089.78;5093338;28;20036;-74
2023/04/29 10:18:20;;;;;;;10.30;3.50;;;;;;;15.02;73.29;96088.88;5092695;28;20040;-74
2023/04/29 10:20:49;;;;;;;6.13;2.65;;;;;;;14.84;73.09;96097.44;5091498;28;20534;-74
2023/04/29 10:23:17;;;;;;;8.07;3.13;;;;;;;14.86;75.73;96091.59;5089838;27;20055;-74
2023/04/29 10:25:48;;;;;;;5.95;3.15;;;;;;;15.00;77.13;96091.97;5091502;28;20055;-74
2023/04/29 10:28:16;;;;;;;8.13;2.97;;;;;;;15.81;77.43;96092.38;5091322;28;20040;-74
2023/04/29 10:30:44;;;;;;;5.07;3.10;;;;;;;17.06;69.74;96083.91;5088906;28;20048;-74
2023/04/29 10:33:11;;;;;;;5.03;2.97;;;;;;;17.26;65.98;96083.84;5088282;27;20048;-73
2023/04/29 10:35:38;;;;;;;4.03;2.50;;;;;;;17.47;64.74;96079.47;5090858;28;20403;-74
2023/04/29 10:38:11;;;;;;;4.45;2.70;;;;;;;17.47;64.50;96078.69;5089493;28;20411;-74
2023/04/29 10:40:42;;;;;;;;;;;;;;;17.93;63.20;96076.66;5089146;28;20409;-74
2023/04/29 10:43:09;;;;;;;3.80;2.22;;;;;;;18.27;60.43;96079.50;5081816;28;19920;-74
2023/04/29 10:45:37;;;;;;;3.92;1.73;;;;;;;18.52;62.50;96075.06;5089551;28;20044;-74
2023/04/29 10:48:15;;;;;;;2.95;1.73;;;;;;;18.75;62.68;96077.72;5084969;27;20472;-74
2023/04/29 10:51:01;;;;;;;5.00;2.40;;;;;;;18.18;59.99;96076.22;5086055;28;20043;-75
2023/04/29 10:53:28;;;;;;;2.55;1.83;;;;;;;17.38;62.61;96078.97;5088492;28;20040;-74
2023/04/29 10:55:58;;;;;;;5.82;2.80;;;;;;;16.98;63.30;96075.91;5088808;28;20048;-74
2023/04/29 10:58:45;;;;;;;4.07;1.90;;;;;;;17.60;67.40;96079.31;5088638;28;20040;-75
2023/04/29 11:01:15;;;;;;;6.63;2.95;;;;;;;17.97;59.32;96072.00;5081807;28;20043;-74
2023/04/29 11:03:58;;;;;;;2.17;1.55;;;;;;;18.49;60.70;96062.03;5089477;27;20052;-74
2023/04/29 11:06:26;;;;;;;4.13;2.28;;;;;;;18.57;62.08;96059.34;5088980;28;20507;-73
2023/04/29 11:09:03;;;;;;;5.03;2.50;;;;;;;18.73;61.30;96051.66;5090380;28;20075;-74
2023/04/29 11:11:59;;;;;;;4.40;1.90;;;;;;;18.35;60.43;96064.63;5090335;28;20415;-74
2023/04/29 11:14:30;;;;;;;4.03;2.30;;;;;;;18.52;59.73;96064.03;5050027;28;20059;-73
2023/04/29 11:16:58;;;;;;;3.53;2.05;;;;;;;18.60;58.19;96069.63;5088516;28;20051;-73
2023/04/29 11:19:30;;;;;;;5.00;2.30;;;;;;;18.50;56.83;96063.63;5089213;28;20044;-74
2023/04/29 11:22:12;;;;;;;3.30;2.55;;;;;;;18.28;56.33;96066.50;5089884;28;20512;-74
2023/04/29 11:24:49;;;;;;;4.38;2.47;;;;;;;17.70;57.60;96065.69;5088272;28;20032;-74
2023/04/29 11:27:18;;;;;;;4.57;2.03;;;;;;;17.86;61.21;96065.56;5081627;28;20047;-73
2023/04/29 11:29:47;;;;;;;4.60;2.42;;;;;;;18.00;58.19;96062.97;5089796;28;20637;-73